Time;durP1;ratioP1;P1;durP2;ratioP2;P2;SDS_P1;SDS_P2;PMS_P1;PMS_P2;Temp;Humidity;BMP_temperature;BMP_pressure;BME280_temperature;BME280_humidity;BME280_pressure;Samples;Min_cycle;Max_cycle;Signal;HPM_P1;HPM_P2
2022/10/23 00:01:31;;;;;;;3.07;1.70;;;16.20;99.90;;;;;;5031751;28;20715;-74
2022/10/23 00:04:05;;;;;;;7.37;2.07;;;16.20;99.90;;;;;;5031587;28;20750;-75
2022/10/23 00:06:32;;;;;;;4.10;1.57;;;16.10;99.90;;;;;;5031883;28;20561;-74
2022/10/23 00:08:58;;;;;;;2.73;1.43;;;16.10;99.90;;;;;;5031852;28;20580;-74
2022/10/23 00:11:27;;;;;;;3.63;1.50;;;16.10;99.90;;;;;;5031831;28;20600;-74
2022/10/23 00:13:55;;;;;;;4.87;1.50;;;16.10;99.90;;;;;;5031505;28;20571;-75
2022/10/23 00:16:21;;;;;;;3.93;1.57;;;16.10;99.90;;;;;;5014138;28;20597;-75
2022/10/23 00:18:47;;;;;;;10.47;2.60;;;16.10;99.90;;;;;;5013016;28;21146;-78
2022/10/23 00:21:14;;;;;;;3.40;1.40;;;16.00;99.90;;;;;;5013705;28;20778;-78
2022/10/23 00:23:41;;;;;;;4.47;1.97;;;16.00;99.90;;;;;;5013787;28;20170;-78
2022/10/23 00:26:07;;;;;;;4.80;1.93;;;16.00;99.90;;;;;;5013968;28;20564;-78
2022/10/23 00:28:33;;;;;;;4.23;1.47;;;16.00;99.90;;;;;;5031838;28;21138;-79
2022/10/23 00:31:04;;;;;;;3.70;1.80;;;16.00;99.90;;;;;;5017301;28;20635;-78
2022/10/23 00:33:34;;;;;;;4.77;1.40;;;16.00;99.90;;;;;;5031106;28;20650;-78
2022/10/23 00:35:59;;;;;;;2.50;1.47;;;15.90;99.90;;;;;;5013814;28;20580;-78
2022/10/23 00:38:25;;;;;;;3.63;1.60;;;15.90;99.90;;;;;;5013918;28;20607;-78
2022/10/23 00:40:51;;;;;;;6.30;2.07;;;15.90;99.90;;;;;;5031367;28;20213;-78
2022/10/23 00:43:22;;;;;;;5.10;1.67;;;15.90;99.90;;;;;;5052257;23;20709;-78
2022/10/23 00:45:48;;;;;;;6.97;2.10;;;15.90;99.90;;;;;;5013040;28;20180;-78
2022/10/23 00:48:14;;;;;;;3.77;1.83;;;15.90;99.90;;;;;;5041450;28;20660;-78
2022/10/23 00:50:41;;;;;;;5.63;1.77;;;15.80;99.90;;;;;;5032787;28;20166;-77
2022/10/23 00:53:10;;;;;;;4.97;1.57;;;15.80;99.90;;;;;;5033759;28;20597;-78
2022/10/23 00:55:37;;;;;;;3.20;1.87;;;15.80;99.90;;;;;;5034852;28;20577;-78
2022/10/23 00:58:04;;;;;;;5.10;1.40;;;15.80;99.90;;;;;;5016292;28;20599;-77
2022/10/23 01:00:46;;;;;;;7.43;2.00;;;15.80;99.90;;;;;;5032951;28;20612;-78
2022/10/23 01:03:15;;;;;;;5.83;2.00;;;15.80;99.90;;;;;;5034505;28;20607;-77
2022/10/23 01:05:55;;;;;;;4.07;1.57;;;15.80;99.90;;;;;;5031240;28;20675;-78
2022/10/23 01:08:41;;;;;;;3.60;1.50;;;15.80;99.90;;;;;;5031255;28;20595;-77
2022/10/23 01:11:31;;;;;;;2.27;1.43;;;15.80;99.90;;;;;;4948703;28;20584;-77
2022/10/23 01:14:06;;;;;;;5.27;1.20;;;15.90;99.90;;;;;;5020973;28;20662;-77
2022/10/23 01:16:42;;;;;;;3.07;1.40;;;15.90;99.90;;;;;;5026728;28;20637;-77
2022/10/23 01:19:32;;;;;;;6.17;1.50;;;15.90;99.90;;;;;;5029560;28;21574;-77
2022/10/23 01:22:07;;;;;;;5.47;1.63;;;15.90;99.90;;;;;;5022328;28;20624;-77
2022/10/23 01:24:55;;;;;;;2.43;1.50;;;15.90;99.90;;;;;;4998433;28;20567;-77
2022/10/23 01:27:45;;;;;;;5.17;1.70;;;15.90;99.90;;;;;;5015238;28;20574;-77
2022/10/23 01:30:16;;;;;;;5.83;1.77;;;15.90;99.90;;;;;;5003508;28;20580;-78
2022/10/23 01:32:59;;;;;;;6.30;2.70;;;15.90;99.90;;;;;;5019050;28;21231;-77
2022/10/23 01:35:32;;;;;;;3.73;1.50;;;15.90;99.90;;;;;;5017503;28;20569;-77
2022/10/23 01:38:11;;;;;;;4.97;2.17;;;15.90;99.90;;;;;;5016835;28;21122;-77
2022/10/23 01:40:42;;;;;;;4.90;1.87;;;15.90;99.90;;;;;;5021292;28;20990;-77
2022/10/23 01:43:15;;;;;;;3.60;1.80;;;15.90;99.90;;;;;;5017466;28;20608;-78
2022/10/23 01:45:44;;;;;;;3.40;1.40;;;15.90;99.90;;;;;;5015858;28;20899;-77
2022/10/23 01:48:18;;;;;;;4.13;2.27;;;15.80;99.90;;;;;;5015574;28;20596;-77
2022/10/23 01:50:46;;;;;;;3.80;1.37;;;15.80;99.90;;;;;;5015568;28;20568;-77
2022/10/23 01:53:11;;;;;;;6.23;2.20;;;15.80;99.90;;;;;;5040692;28;20636;-77
2022/10/23 01:55:40;;;;;;;3.60;1.57;;;15.80;99.90;;;;;;5015756;28;20611;-77
2022/10/23 01:58:11;;;;;;;6.23;1.80;;;15.80;99.90;;;;;;5015262;28;20608;-77
2022/10/23 02:00:43;;;;;;;4.27;1.47;;;15.80;99.90;;;;;;4999584;28;20607;-77
2022/10/23 02:03:10;;;;;;;6.40;2.13;;;15.80;99.90;;;;;;5015359;28;20695;-77
2022/10/23 02:05:38;;;;;;;2.73;1.40;;;15.80;99.90;;;;;;5001648;28;20684;-78
2022/10/23 02:08:04;;;;;;;3.50;1.33;;;15.80;99.90;;;;;;5039634;28;20588;-78
2022/10/23 02:10:40;;;;;;;2.77;1.20;;;15.80;99.90;;;;;;5039431;28;20564;-77
2022/10/23 02:13:21;;;;;;;3.47;1.90;;;15.80;99.90;;;;;;5037366;28;20588;-77
2022/10/23 02:15:54;;;;;;;5.20;2.00;;;15.80;99.90;;;;;;5017799;28;20572;-77
2022/10/23 02:18:41;;;;;;;5.03;1.87;;;15.70;99.90;;;;;;5020495;28;20981;-77
2022/10/23 02:21:15;;;;;;;4.23;1.73;;;15.80;99.90;;;;;;5018232;28;20726;-77
2022/10/23 02:23:54;;;;;;;5.37;1.40;;;15.80;99.90;;;;;;5019721;28;20646;-77
2022/10/23 02:26:34;;;;;;;5.93;1.87;;;15.70;99.90;;;;;;5020465;28;20629;-77
2022/10/23 02:29:14;;;;;;;6.03;1.73;;;15.80;99.90;;;;;;5037143;28;20560;-77
2022/10/23 02:31:44;;;;;;;3.03;1.63;;;15.80;99.90;;;;;;5019703;28;20584;-78
2022/10/23 02:34:10;;;;;;;7.83;1.63;;;15.80;99.90;;;;;;5001943;28;20609;-78
2022/10/23 02:36:36;;;;;;;5.07;1.67;;;15.80;99.90;;;;;;5037428;28;20575;-78
2022/10/23 02:39:03;;;;;;;5.83;1.50;;;15.70;99.90;;;;;;5019734;28;20974;-78
2022/10/23 02:41:57;;;;;;;2.57;1.70;;;15.70;99.90;;;;;;5020643;28;20608;-77
2022/10/23 02:44:57;;;;;;;3.80;1.70;;;15.70;99.90;;;;;;5109799;27;20851;-78
2022/10/23 02:47:31;;;;;;;3.53;1.40;;;15.80;99.90;;;;;;5073971;28;20574;-78
2022/10/23 02:50:31;;;;;;;6.50;1.97;;;15.70;99.90;;;;;;5088736;28;20570;-77
2022/10/23 02:53:12;;;;;;;2.80;1.80;;;15.80;99.90;;;;;;5070990;28;20593;-77
2022/10/23 02:56:02;;;;;;;3.53;1.50;;;15.70;99.90;;;;;;5070510;28;20566;-78
2022/10/23 02:58:35;;;;;;;3.63;1.43;;;15.70;99.90;;;;;;5052864;28;20969;-77
2022/10/23 03:01:12;;;;;;;6.23;1.70;;;15.80;99.90;;;;;;5072085;28;21059;-77
2022/10/23 03:03:51;;;;;;;4.43;1.80;;;15.80;99.90;;;;;;5058020;28;21236;-77
2022/10/23 03:06:17;;;;;;;6.17;1.83;;;15.80;99.90;;;;;;5054503;28;20571;-78
2022/10/23 03:09:03;;;;;;;3.50;1.40;;;15.80;99.90;;;;;;5062612;28;20588;-78
2022/10/23 03:11:29;;;;;;;4.47;1.30;;;15.80;99.90;;;;;;5087753;28;20589;-78
2022/10/23 03:13:55;;;;;;;3.20;1.40;;;15.80;99.90;;;;;;5092576;28;20601;-78
2022/10/23 03:16:20;;;;;;;3.00;1.37;;;15.80;99.90;;;;;;5066068;28;20728;-77
2022/10/23 03:18:51;;;;;;;3.50;1.57;;;15.80;99.90;;;;;;5071526;28;20598;-78
2022/10/23 03:21:17;;;;;;;2.80;1.30;;;15.90;99.90;;;;;;5084763;28;21228;-78
2022/10/23 03:23:43;;;;;;;4.70;1.40;;;15.90;99.90;;;;;;5071528;28;20679;-78
2022/10/23 03:26:15;;;;;;;2.77;1.20;;;15.90;99.90;;;;;;5035105;28;20567;-77
2022/10/23 03:28:42;;;;;;;5.80;1.43;;;15.80;99.90;;;;;;5036728;28;21030;-77
2022/10/23 03:31:08;;;;;;;2.33;1.10;;;15.80;99.90;;;;;;5077383;28;20676;-78
2022/10/23 03:33:34;;;;;;;3.10;1.40;;;15.80;99.90;;;;;;5082042;28;20681;-78
2022/10/23 03:36:08;;;;;;;4.63;1.83;;;15.90;99.90;;;;;;5073470;28;20173;-78
2022/10/23 03:38:34;;;;;;;10.73;1.70;;;15.80;99.90;;;;;;5087893;28;20650;-78
2022/10/23 03:41:01;;;;;;;4.00;1.97;;;15.80;99.90;;;;;;5088187;28;20563;-77
2022/10/23 03:43:27;;;;;;;3.30;1.37;;;15.80;99.90;;;;;;5086969;28;21303;-78
2022/10/23 03:45:55;;;;;;;3.63;1.53;;;15.80;99.90;;;;;;5087766;28;20642;-78
2022/10/23 03:48:23;;;;;;;2.57;1.20;;;15.80;99.90;;;;;;5088052;28;20164;-78
2022/10/23 03:50:49;;;;;;;4.17;1.60;;;15.80;99.90;;;;;;5089339;28;20579;-78
2022/10/23 03:53:15;;;;;;;2.40;1.20;;;15.80;99.90;;;;;;5086401;28;20617;-79
2022/10/23 03:55:42;;;;;;;6.77;1.47;;;15.70;99.90;;;;;;5060378;28;20567;-77
2022/10/23 03:58:08;;;;;;;5.93;2.00;;;15.80;99.90;;;;;;5033845;28;20587;-78
2022/10/23 04:00:33;;;;;;;5.63;2.33;;;15.80;99.90;;;;;;5055887;28;20575;-78
2022/10/23 04:03:00;;;;;;;2.50;1.20;;;15.80;99.90;;;;;;5054656;28;20262;-77
2022/10/23 04:05:26;;;;;;;6.70;1.43;;;15.80;99.90;;;;;;5054565;28;20654;-77
2022/10/23 04:07:55;;;;;;;2.43;1.30;;;15.70;99.90;;;;;;5041500;28;20611;-78
2022/10/23 04:10:22;;;;;;;3.50;1.23;;;15.70;99.90;;;;;;5053994;28;20591;-79
2022/10/23 04:12:47;;;;;;;3.13;1.20;;;15.70;99.90;;;;;;5036995;28;20621;-79
2022/10/23 04:15:13;;;;;;;5.57;1.40;;;15.70;99.90;;;;;;5053394;28;20680;-79
2022/10/23 04:17:42;;;;;;;4.43;1.50;;;15.70;99.90;;;;;;5037384;28;20173;-78
2022/10/23 04:20:08;;;;;;;4.30;1.43;;;15.70;99.90;;;;;;5053667;28;20555;-79
2022/10/23 04:22:34;;;;;;;6.93;1.63;;;15.70;99.90;;;;;;5054345;28;20196;-78
2022/10/23 04:25:00;;;;;;;3.30;1.70;;;15.70;99.90;;;;;;5054793;28;20906;-78
2022/10/23 04:27:27;;;;;;;6.43;1.30;;;15.70;99.90;;;;;;5060104;28;20200;-77
2022/10/23 04:29:54;;;;;;;5.53;1.20;;;15.70;99.90;;;;;;5056345;28;20579;-77
2022/10/23 04:32:20;;;;;;;3.70;1.30;;;15.60;99.90;;;;;;5059654;28;20607;-77
2022/10/23 04:34:46;;;;;;;3.80;1.47;;;15.70;99.90;;;;;;5057375;28;20202;-78
2022/10/23 04:37:12;;;;;;;2.80;1.47;;;15.70;99.90;;;;;;5056738;28;20574;-78
2022/10/23 04:39:38;;;;;;;5.53;1.27;;;15.70;99.90;;;;;;5052765;28;21170;-78
2022/10/23 04:42:04;;;;;;;3.60;1.30;;;15.70;99.90;;;;;;5053681;28;20167;-78
2022/10/23 04:44:29;;;;;;;6.57;1.30;;;15.70;99.90;;;;;;5058183;28;20212;-78
2022/10/23 04:46:55;;;;;;;3.93;1.10;;;15.70;99.90;;;;;;5057244;28;20234;-78
2022/10/23 04:49:22;;;;;;;4.40;1.50;;;15.80;99.90;;;;;;5056929;28;20166;-78
2022/10/23 04:52:06;;;;;;;5.33;1.33;;;15.70;99.90;;;;;;5059551;28;20559;-78
2022/10/23 04:55:03;;;;;;;5.63;1.33;;;15.80;99.90;;;;;;5056658;28;20564;-78
2022/10/23 04:57:31;;;;;;;3.40;1.57;;;15.80;99.90;;;;;;5055634;28;20944;-78
2022/10/23 05:00:08;;;;;;;5.23;1.50;;;15.80;99.90;;;;;;5055418;28;20940;-78
2022/10/23 05:02:41;;;;;;;5.50;1.67;;;15.80;99.90;;;;;;5038172;28;20631;-78
2022/10/23 05:05:08;;;;;;;2.00;1.20;;;15.70;99.90;;;;;;5055549;28;20679;-78
2022/10/23 05:07:38;;;;;;;3.27;1.20;;;15.80;99.90;;;;;;5057289;28;20579;-78
2022/10/23 05:10:22;;;;;;;2.70;1.10;;;15.70;99.90;;;;;;5057935;28;20548;-78
2022/10/23 05:13:00;;;;;;;2.80;1.20;;;15.70;99.90;;;;;;5053665;28;20613;-77
2022/10/23 05:15:27;;;;;;;2.60;1.00;;;15.70;99.90;;;;;;5058238;28;20590;-78
2022/10/23 05:17:58;;;;;;;3.20;1.30;;;15.70;99.90;;;;;;5057195;28;20579;-78
2022/10/23 05:20:29;;;;;;;2.67;1.10;;;15.70;99.90;;;;;;5053811;28;20173;-78
2022/10/23 05:22:56;;;;;;;3.40;1.50;;;15.80;99.90;;;;;;5056744;28;21031;-78
2022/10/23 05:25:24;;;;;;;4.63;1.27;;;15.80;99.90;;;;;;5052828;28;20902;-77
2022/10/23 05:27:58;;;;;;;4.93;1.30;;;15.80;99.90;;;;;;5052287;28;20574;-78
2022/10/23 05:30:24;;;;;;;8.67;1.30;;;15.80;99.90;;;;;;5035198;28;20986;-77
2022/10/23 05:32:50;;;;;;;4.93;1.10;;;15.70;99.90;;;;;;5054790;28;20607;-78
2022/10/23 05:35:22;;;;;;;3.83;1.10;;;15.80;99.90;;;;;;5039995;28;20595;-77
2022/10/23 05:37:51;;;;;;;5.23;1.10;;;15.70;99.90;;;;;;5055579;28;20941;-78
2022/10/23 05:40:20;;;;;;;3.50;1.57;;;15.70;99.90;;;;;;5054885;28;20658;-78
2022/10/23 05:42:48;;;;;;;4.03;1.40;;;15.70;99.90;;;;;;5055397;28;20642;-78
2022/10/23 05:45:19;;;;;;;2.97;0.90;;;15.70;99.90;;;;;;5055263;28;20564;-78
2022/10/23 05:48:04;;;;;;;1.80;1.20;;;15.70;99.90;;;;;;5056081;28;20559;-78
2022/10/23 05:51:08;;;;;;;2.60;1.10;;;15.70;99.90;;;;;;5046480;28;20682;-76
2022/10/23 05:53:51;;;;;;;2.00;0.90;;;15.70;99.90;;;;;;5053534;28;20638;-77
2022/10/23 05:56:28;;;;;;;2.43;1.20;;;15.70;99.90;;;;;;5053528;28;20568;-73
2022/10/23 05:59:06;;;;;;;3.90;1.10;;;15.70;99.90;;;;;;5054792;28;21176;-73
2022/10/23 06:01:49;;;;;;;5.93;2.40;;;15.70;99.90;;;;;;5052008;28;20598;-73
2022/10/23 06:04:24;;;;;;;5.30;1.30;;;15.70;99.90;;;;;;5050734;28;20623;-73
2022/10/23 06:07:10;;;;;;;4.23;1.70;;;15.70;99.90;;;;;;5030497;28;20586;-73
2022/10/23 06:09:36;;;;;;;4.50;1.50;;;15.70;99.90;;;;;;5049400;28;20611;-73
2022/10/23 06:12:02;;;;;;;2.07;0.97;;;15.70;99.90;;;;;;5049977;28;20590;-73
2022/10/23 06:14:30;;;;;;;4.77;1.20;;;15.80;99.90;;;;;;5050691;28;20180;-73
2022/10/23 06:16:56;;;;;;;2.23;1.10;;;15.80;99.90;;;;;;5050615;28;21130;-74
2022/10/23 06:19:23;;;;;;;2.90;1.30;;;15.70;99.90;;;;;;5050493;28;20563;-74
2022/10/23 06:21:53;;;;;;;4.53;1.17;;;15.70;99.90;;;;;;5050393;28;20625;-73
2022/10/23 06:24:24;;;;;;;7.43;1.13;;;15.80;99.90;;;;;;5047512;28;20676;-73
2022/10/23 06:26:58;;;;;;;1.77;1.07;;;15.80;99.90;;;;;;5046734;28;20627;-73
2022/10/23 06:29:40;;;;;;;4.87;1.40;;;15.80;99.90;;;;;;5031597;28;20571;-73
2022/10/23 06:32:06;;;;;;;2.27;1.20;;;15.80;99.90;;;;;;5051337;28;20567;-73
2022/10/23 06:34:32;;;;;;;5.50;1.37;;;15.90;99.90;;;;;;5049839;28;20628;-73
2022/10/23 06:36:58;;;;;;;4.00;1.30;;;15.90;99.90;;;;;;5054463;28;20615;-73
2022/10/23 06:39:35;;;;;;;3.10;0.97;;;15.90;99.90;;;;;;5033329;28;20597;-73
2022/10/23 06:42:21;;;;;;;1.97;1.00;;;16.00;99.90;;;;;;5050323;28;21039;-73
2022/10/23 06:44:52;;;;;;;2.43;1.10;;;16.10;99.90;;;;;;5049853;28;20592;-74
2022/10/23 06:47:50;;;;;;;3.03;1.20;;;16.10;99.90;;;;;;5045323;28;20600;-73
2022/10/23 06:50:36;;;;;;;3.83;1.10;;;16.10;99.90;;;;;;5051349;28;20602;-73
2022/10/23 06:53:06;;;;;;;9.53;1.37;;;16.20;99.90;;;;;;5049618;28;20652;-73
2022/10/23 06:55:34;;;;;;;1.97;1.03;;;16.20;99.90;;;;;;5049504;28;20586;-73
2022/10/23 06:58:01;;;;;;;2.83;1.23;;;16.30;99.90;;;;;;5055065;23;21199;-76
2022/10/23 07:00:28;;;;;;;3.87;1.20;;;16.30;99.90;;;;;;5046123;28;20601;-77
2022/10/23 07:02:54;;;;;;;4.60;1.23;;;16.30;99.90;;;;;;5035019;28;20631;-77
2022/10/23 07:05:21;;;;;;;2.40;1.47;;;16.40;99.90;;;;;;5040595;28;21169;-77
2022/10/23 07:07:47;;;;;;;3.37;1.60;;;16.40;99.90;;;;;;5023592;28;20640;-77
2022/10/23 07:10:18;;;;;;;3.60;1.27;;;16.40;99.90;;;;;;4965643;28;20166;-77
2022/10/23 07:12:47;;;;;;;2.27;1.40;;;16.50;99.90;;;;;;5011226;28;20590;-78
2022/10/23 07:15:31;;;;;;;3.63;1.17;;;16.50;99.90;;;;;;5014225;28;20573;-77
2022/10/23 07:17:58;;;;;;;2.20;1.00;;;16.50;99.90;;;;;;5020855;28;20596;-78
2022/10/23 07:20:26;;;;;;;2.67;0.90;;;16.50;99.90;;;;;;5019378;28;21235;-78
2022/10/23 07:22:54;;;;;;;3.00;1.33;;;16.50;99.90;;;;;;5021644;28;21170;-77
2022/10/23 07:25:28;;;;;;;4.17;1.67;;;16.60;99.90;;;;;;5014885;28;20592;-77
2022/10/23 07:27:55;;;;;;;6.20;1.53;;;16.60;99.90;;;;;;5011088;28;20971;-77
2022/10/23 07:30:23;;;;;;;3.57;1.30;;;16.70;99.90;;;;;;5027289;28;20582;-78
2022/10/23 07:32:52;;;;;;;1.80;1.00;;;16.70;99.90;;;;;;5025736;28;20953;-77
2022/10/23 07:35:46;;;;;;;2.77;1.10;;;16.80;99.90;;;;;;5038009;28;20600;-76
2022/10/23 07:38:17;;;;;;;4.00;1.30;;;16.90;99.90;;;;;;5006739;28;20999;-77
2022/10/23 07:40:49;;;;;;;7.23;1.93;;;17.00;99.90;;;;;;5016322;28;20598;-76
2022/10/23 07:43:19;;;;;;;3.10;1.63;;;17.10;99.90;;;;;;5020074;28;21021;-76
2022/10/23 07:45:47;;;;;;;2.10;1.03;;;17.20;99.90;;;;;;5027199;28;20582;-76
2022/10/23 07:48:20;;;;;;;2.17;1.27;;;17.20;99.90;;;;;;5029082;28;21168;-77
2022/10/23 07:51:00;;;;;;;4.47;1.40;;;17.30;99.90;;;;;;5020317;28;20592;-77
2022/10/23 07:53:27;;;;;;;3.37;1.50;;;17.40;99.90;;;;;;5024931;28;20743;-76
2022/10/23 07:55:59;;;;;;;1.80;1.00;;;17.50;99.90;;;;;;5031104;28;20607;-77
2022/10/23 07:58:36;;;;;;;4.87;1.10;;;17.50;99.90;;;;;;5013357;28;20632;-76
2022/10/23 08:01:31;;;;;;;2.70;1.10;;;17.50;99.90;;;;;;5030087;28;20668;-77
2022/10/23 08:03:57;;;;;;;3.37;1.40;;;17.50;99.90;;;;;;5013989;28;20623;-76
2022/10/23 08:06:23;;;;;;;2.77;1.40;;;17.60;99.90;;;;;;5013725;28;20565;-76
2022/10/23 08:08:49;;;;;;;2.00;1.20;;;17.70;99.90;;;;;;5029700;28;20601;-75
2022/10/23 08:11:23;;;;;;;5.30;1.17;;;17.80;99.90;;;;;;5009746;28;20581;-76
2022/10/23 08:13:51;;;;;;;4.57;1.30;;;17.80;99.90;;;;;;5009881;28;20592;-76
2022/10/23 08:16:17;;;;;;;2.27;1.07;;;17.90;99.90;;;;;;5030819;28;21170;-76
2022/10/23 08:19:05;;;;;;;4.50;1.70;;;17.90;99.90;;;;;;5026771;28;20617;-76
2022/10/23 08:21:31;;;;;;;2.53;1.20;;;18.00;99.90;;;;;;5019978;28;20585;-76
2022/10/23 08:23:58;;;;;;;2.90;1.20;;;18.10;99.90;;;;;;4996743;28;20645;-75
2022/10/23 08:26:25;;;;;;;2.47;1.20;;;18.30;99.90;;;;;;5015352;28;20573;-76
2022/10/23 08:28:52;;;;;;;4.03;1.10;;;18.50;99.90;;;;;;5016681;28;20609;-75
2022/10/23 08:31:20;;;;;;;2.03;1.20;;;18.60;99.90;;;;;;5024559;28;20569;-78
2022/10/23 08:34:06;;;;;;;3.27;1.37;;;18.70;99.90;;;;;;5025268;28;20605;-78
2022/10/23 08:36:33;;;;;;;2.10;1.23;;;18.80;99.90;;;;;;5017440;28;20573;-77
2022/10/23 08:38:59;;;;;;;6.63;1.30;;;18.90;99.90;;;;;;5014350;28;20603;-77
2022/10/23 08:41:35;;;;;;;2.43;0.87;;;19.00;99.90;;;;;;5014071;28;20596;-77
2022/10/23 08:44:30;;;;;;;2.80;1.10;;;19.10;99.90;;;;;;5015323;28;20620;-77
2022/10/23 08:47:13;;;;;;;2.87;1.10;;;19.30;99.90;;;;;;5024022;28;20577;-76
2022/10/23 08:50:04;;;;;;;3.43;1.07;;;19.50;99.90;;;;;;5014754;28;20968;-76
2022/10/23 08:52:51;;;;;;;2.83;0.97;;;19.60;99.90;;;;;;5014900;28;20561;-76
2022/10/23 08:55:29;;;;;;;4.57;1.23;;;19.80;99.90;;;;;;5033880;28;21218;-76
2022/10/23 08:58:06;;;;;;;8.40;1.33;;;20.10;99.90;;;;;;5015922;28;21053;-77
2022/10/23 09:00:33;;;;;;;2.23;0.93;;;20.40;99.90;;;;;;5014681;28;20609;-77
2022/10/23 09:03:02;;;;;;;4.57;1.10;;;20.70;99.90;;;;;;5014208;28;20719;-76
2022/10/23 09:06:07;;;;;;;3.60;1.10;;;20.90;99.90;;;;;;5013774;28;20573;-77
2022/10/23 09:08:42;;;;;;;3.43;1.13;;;21.20;99.90;;;;;;5012484;28;20664;-77
2022/10/23 09:11:36;;;;;;;2.30;1.00;;;21.60;99.90;;;;;;5018943;28;20981;-78
2022/10/23 09:14:37;;;;;;;3.03;1.00;;;21.90;99.90;;;;;;5044642;28;20609;-78
2022/10/23 09:17:10;;;;;;;3.17;0.87;;;22.20;99.90;;;;;;5036760;28;20577;-77
2022/10/23 09:19:36;;;;;;;2.67;1.00;;;22.70;99.90;;;;;;5022827;28;21259;-78
2022/10/23 09:22:02;;;;;;;2.50;0.93;;;23.00;99.90;;;;;;5038186;28;20617;-78
2022/10/23 09:24:30;;;;;;;3.20;1.00;;;23.50;99.90;;;;;;5026464;28;20681;-78
2022/10/23 09:26:57;;;;;;;2.67;1.03;;;23.70;99.90;;;;;;5032964;28;20224;-78
2022/10/23 09:29:30;;;;;;;3.53;1.03;;;23.80;99.90;;;;;;5024877;28;20633;-78
2022/10/23 09:31:58;;;;;;;2.73;1.10;;;23.80;99.90;;;;;;5023064;28;20580;-78
2022/10/23 09:34:27;;;;;;;2.90;1.17;;;23.80;99.90;;;;;;5026889;28;20637;-77
2022/10/23 09:37:16;;;;;;;5.10;1.00;;;23.80;99.90;;;;;;5023291;28;20957;-77
2022/10/23 09:39:42;;;;;;;3.20;1.10;;;23.80;99.90;;;;;;5021189;28;20578;-76
2022/10/23 09:42:22;;;;;;;2.23;1.20;;;23.80;99.90;;;;;;5022327;28;20688;-78
2022/10/23 09:44:50;;;;;;;2.33;1.00;;;23.70;99.90;;;;;;5020155;28;20256;-77
2022/10/23 09:47:29;;;;;;;2.20;1.27;;;23.70;99.90;;;;;;5028004;28;20593;-79
2022/10/23 09:49:56;;;;;;;3.23;1.10;;;23.70;99.90;;;;;;4998342;28;20684;-79
2022/10/23 09:52:44;;;;;;;4.97;1.40;;;23.70;99.90;;;;;;5027749;28;20570;-79
2022/10/23 09:55:24;;;;;;;3.83;1.00;;;23.50;99.90;;;;;;5012038;28;20664;-79
2022/10/23 09:57:51;;;;;;;1.80;0.80;;;23.40;99.90;;;;;;5002703;28;20631;-79
2022/10/23 10:00:20;;;;;;;2.20;0.90;;;23.30;99.90;;;;;;5033649;28;20581;-79
2022/10/23 10:03:08;;;;;;;1.50;0.80;;;23.20;99.90;;;;;;5031095;28;20585;-79
2022/10/23 10:06:03;;;;;;;6.17;1.20;;;23.00;99.90;;;;;;5000469;28;20589;-79
2022/10/23 10:08:49;;;;;;;2.87;1.67;;;22.90;99.90;;;;;;5021270;28;20608;-79
2022/10/23 10:11:30;;;;;;;5.43;0.90;;;22.80;99.90;;;;;;5032828;28;20949;-80
2022/10/23 10:14:18;;;;;;;2.73;1.17;;;22.80;99.90;;;;;;5011607;28;20632;-80
2022/10/23 10:17:29;;;;;;;2.03;1.00;;;22.70;99.90;;;;;;5027149;28;20562;-79
2022/10/23 10:20:05;;;;;;;1.83;1.00;;;22.50;99.90;;;;;;5014725;28;20937;-78
2022/10/23 10:23:01;;;;;;;4.03;0.93;;;22.40;99.90;;;;;;5023837;28;20708;-79
2022/10/23 10:25:35;;;;;;;10.27;1.90;;;22.20;99.90;;;;;;5009353;28;20577;-79
2022/10/23 10:28:36;;;;;;;2.90;1.00;;;22.10;99.90;;;;;;4981094;28;20723;-79
2022/10/23 10:31:22;;;;;;;3.47;1.00;;;21.90;99.90;;;;;;5022195;28;20612;-78
2022/10/23 10:34:12;;;;;;;2.90;1.00;;;21.80;99.90;;;;;;5002293;28;20632;-77
2022/10/23 10:36:46;;;;;;;1.77;1.10;;;21.60;99.90;;;;;;5012944;28;20639;-78
2022/10/23 10:39:23;;;;;;;4.07;2.23;;;21.60;99.90;;;;;;5015655;28;20695;-78
2022/10/23 10:41:59;;;;;;;3.10;2.30;;;21.50;99.90;;;;;;5005793;28;20561;-79
2022/10/23 10:44:36;;;;;;;3.90;1.37;;;21.50;99.90;;;;;;5006153;28;20633;-78
2022/10/23 10:47:24;;;;;;;4.33;1.13;;;21.40;99.90;;;;;;4987220;28;20581;-77
2022/10/23 10:50:18;;;;;;;6.30;1.30;;;21.40;99.90;;;;;;5011307;28;20616;-78
2022/10/23 10:53:27;;;;;;;4.63;0.93;;;21.30;99.90;;;;;;5023993;28;20593;-79
2022/10/23 10:55:57;;;;;;;3.00;1.20;;;21.20;99.90;;;;;;5027450;28;20565;-80
2022/10/23 10:58:35;;;;;;;4.20;0.90;;;21.10;99.90;;;;;;5017990;28;20609;-80
2022/10/23 11:01:15;;;;;;;4.43;0.80;;;21.00;99.90;;;;;;5013603;28;20589;-79
2022/10/23 11:04:00;;;;;;;3.13;0.90;;;21.00;99.90;;;;;;5028212;28;20632;-79
2022/10/23 11:06:30;;;;;;;3.37;1.00;;;21.00;99.90;;;;;;5031706;28;20615;-79
2022/10/23 11:09:04;;;;;;;2.60;1.33;;;21.00;99.90;;;;;;5025467;28;20597;-78
2022/10/23 11:11:29;;;;;;;1.97;0.90;;;21.00;99.90;;;;;;5025621;28;20577;-78
2022/10/23 11:13:56;;;;;;;4.20;1.00;;;21.00;99.90;;;;;;5035415;28;20576;-81
2022/10/23 11:16:34;;;;;;;1.73;0.77;;;21.00;99.90;;;;;;5038123;28;20185;-80
2022/10/23 11:19:11;;;;;;;2.10;0.90;;;20.90;99.90;;;;;;5023752;28;20637;-80
2022/10/23 11:21:44;;;;;;;3.50;1.00;;;20.90;99.90;;;;;;4998279;28;20601;-80
2022/10/23 11:24:50;;;;;;;5.40;1.20;;;20.80;99.90;;;;;;5034843;28;20668;-80
2022/10/23 11:27:25;;;;;;;3.13;1.37;;;20.70;99.90;;;;;;5017487;28;20689;-80
2022/10/23 11:30:17;;;;;;;2.30;1.03;;;20.50;99.90;;;;;;5014532;28;20577;-80
2022/10/23 11:33:00;;;;;;;4.50;1.27;;;20.40;99.90;;;;;;5029920;28;20661;-80
2022/10/23 11:35:32;;;;;;;2.00;0.90;;;20.30;99.90;;;;;;5026065;28;21141;-77
2022/10/23 11:38:17;;;;;;;4.00;1.03;;;20.20;99.90;;;;;;5018173;28;20610;-79
2022/10/23 11:40:50;;;;;;;3.00;1.10;;;20.10;99.90;;;;;;5024898;28;20684;-77
2022/10/23 11:43:56;;;;;;;3.43;1.00;;;20.00;99.90;;;;;;5020201;28;21199;-78
2022/10/23 11:46:21;;;;;;;2.23;1.00;;;20.00;99.90;;;;;;4982163;28;20625;-79
2022/10/23 11:48:48;;;;;;;1.93;1.00;;;20.00;99.90;;;;;;4968845;28;20707;-79
2022/10/23 11:51:36;;;;;;;3.17;0.97;;;20.00;99.90;;;;;;4981185;28;20190;-78
2022/10/23 11:54:11;;;;;;;3.57;0.93;;;20.10;99.90;;;;;;5013663;28;20997;-77
2022/10/23 11:56:49;;;;;;;5.10;1.10;;;20.30;99.90;;;;;;5023342;28;20585;-77
2022/10/23 11:59:24;;;;;;;2.20;0.90;;;20.40;99.90;;;;;;4997830;28;20632;-79
2022/10/23 12:01:51;;;;;;;5.10;0.87;;;20.50;99.90;;;;;;4999676;28;20688;-76
2022/10/23 12:04:24;;;;;;;2.30;1.10;;;20.70;99.90;;;;;;4996102;28;20640;-76
2022/10/23 12:06:54;;;;;;;6.50;2.17;;;20.80;99.90;;;;;;5006580;28;20595;-77
2022/10/23 12:09:43;;;;;;;2.50;1.43;;;20.80;99.90;;;;;;5037247;28;20620;-78
2022/10/23 12:12:09;;;;;;;7.43;1.47;;;21.00;99.90;;;;;;5026050;28;20593;-77
2022/10/23 12:14:47;;;;;;;4.63;1.60;;;21.10;99.90;;;;;;5023662;28;20592;-79
2022/10/23 12:17:22;;;;;;;4.07;1.10;;;21.10;99.90;;;;;;5016210;28;20301;-79
2022/10/23 12:20:27;;;;;;;2.33;1.00;;;21.10;99.90;;;;;;5015605;28;20580;-81
2022/10/23 12:24:00;;;;;;;4.10;0.97;;;21.20;99.90;;;;;;5023688;28;20656;-79
2022/10/23 12:27:44;;;;;;;3.53;1.20;;;21.20;99.90;;;;;;5020107;28;20604;-80
2022/10/23 12:30:21;;;;;;;2.90;0.90;;;21.30;99.90;;;;;;5010169;28;20596;-79
2022/10/23 12:33:46;;;;;;;6.17;1.30;;;21.40;99.90;;;;;;5026667;28;20561;-79
2022/10/23 12:36:42;;;;;;;3.70;1.00;;;21.40;99.90;;;;;;5023182;28;20961;-78
2022/10/23 12:39:50;;;;;;;3.40;1.67;;;21.40;99.90;;;;;;5001895;28;20628;-76
2022/10/23 12:42:22;;;;;;;1.97;1.10;;;21.30;99.90;;;;;;4992231;28;20578;-75
2022/10/23 12:45:19;;;;;;;6.83;1.00;;;21.40;99.90;;;;;;5011641;28;21015;-76
2022/10/23 12:47:46;;;;;;;3.77;1.20;;;21.40;99.90;;;;;;5013792;28;20629;-76
2022/10/23 12:50:32;;;;;;;1.93;1.10;;;21.30;99.90;;;;;;5028977;28;20558;-76
2022/10/23 12:53:09;;;;;;;3.40;1.40;;;21.30;99.90;;;;;;5012052;28;20668;-76
2022/10/23 12:56:05;;;;;;;2.10;1.00;;;21.30;99.90;;;;;;5013744;28;20573;-76
2022/10/23 12:58:34;;;;;;;2.70;2.00;;;21.30;99.90;;;;;;5035592;23;20715;-79
2022/10/23 13:01:04;;;;;;;4.03;2.57;;;21.40;99.90;;;;;;5023489;28;20584;-81
2022/10/23 13:03:32;;;;;;;3.93;2.50;;;21.40;99.90;;;;;;5032470;28;20655;-83
2022/10/23 13:06:03;;;;;;;3.30;1.50;;;21.50;99.90;;;;;;5030424;28;20607;-79
2022/10/23 13:08:39;;;;;;;3.90;1.40;;;21.50;99.90;;;;;;5023385;28;20608;-81
2022/10/23 13:11:33;;;;;;;3.70;1.67;;;21.50;99.90;;;;;;4996929;28;20580;-80
2022/10/23 13:14:11;;;;;;;4.43;1.67;;;21.50;99.90;;;;;;5014994;28;21014;-80
2022/10/23 13:16:37;;;;;;;3.53;1.40;;;21.40;99.90;;;;;;5032804;28;20576;-79
2022/10/23 13:19:02;;;;;;;3.80;1.30;;;21.40;99.90;;;;;;5030621;28;20726;-78
2022/10/23 13:21:29;;;;;;;2.50;0.97;;;21.30;99.90;;;;;;5032592;28;20243;-79
2022/10/23 13:23:55;;;;;;;2.30;1.20;;;21.30;99.90;;;;;;5033475;28;20201;-80
2022/10/23 13:26:34;;;;;;;4.90;2.00;;;21.30;99.90;;;;;;5033026;28;20569;-81